createdAt,value
2023-06-05T00:00:29.865Z,46.16
2023-06-05T00:01:29.872Z,46.26
2023-06-05T00:02:29.926Z,46.36
2023-06-05T00:03:30.069Z,46.36
2023-06-05T00:04:29.855Z,46.56
2023-06-05T00:05:29.788Z,46.77
2023-06-05T00:06:29.802Z,46.97
2023-06-05T00:07:29.801Z,47.09
2023-06-05T00:08:29.787Z,46.99
2023-06-05T00:09:29.818Z,46.99
2023-06-05T00:10:29.751Z,47.19
2023-06-05T00:11:29.808Z,47.30
2023-06-05T00:12:29.719Z,47.30
2023-06-05T00:13:29.718Z,47.30
2023-06-05T00:14:29.772Z,47.30
2023-06-05T00:15:29.744Z,47.19
2023-06-05T00:16:29.806Z,47.30
2023-06-05T00:17:29.762Z,47.30
2023-06-05T00:18:29.705Z,47.39
2023-06-05T00:19:30.676Z,47.30
2023-06-05T00:20:29.663Z,47.60
2023-06-05T00:21:29.664Z,47.70
2023-06-05T00:22:29.676Z,47.80
2023-06-05T00:23:29.664Z,47.92
2023-06-05T00:24:29.604Z,47.82
2023-06-05T00:25:29.717Z,47.72
2023-06-05T00:26:29.612Z,48.03
2023-06-05T00:27:29.568Z,47.92
2023-06-05T00:28:29.648Z,48.03
2023-06-05T00:29:29.617Z,48.03
2023-06-05T00:30:29.565Z,47.92
2023-06-05T00:31:29.581Z,48.03
2023-06-05T00:32:29.603Z,48.23
2023-06-05T00:33:29.527Z,48.23
2023-06-05T00:34:29.582Z,48.23
2023-06-05T00:35:29.522Z,48.35
2023-06-05T00:36:29.477Z,48.23
2023-06-05T00:37:29.486Z,48.43
2023-06-05T00:38:29.497Z,48.54
2023-06-05T00:39:29.549Z,48.66
2023-06-05T00:40:29.440Z,48.46
2023-06-05T00:41:29.752Z,48.66
2023-06-05T00:42:29.436Z,48.55
2023-06-05T00:43:29.448Z,48.66
2023-06-05T00:44:29.451Z,48.66
2023-06-05T00:45:29.448Z,48.86
2023-06-05T00:46:29.477Z,48.86
2023-06-05T00:47:29.412Z,48.88
2023-06-05T00:48:29.447Z,48.88
2023-06-05T00:49:29.419Z,48.88
2023-06-05T00:50:29.381Z,48.68
2023-06-05T00:51:29.393Z,48.48
2023-06-05T00:52:29.333Z,48.58
2023-06-05T00:53:29.357Z,48.48
2023-06-05T00:54:29.344Z,48.68
2023-06-05T00:55:29.305Z,48.55
2023-06-05T00:56:29.325Z,48.58
2023-06-05T00:57:29.480Z,48.58
2023-06-05T00:58:29.272Z,48.58
2023-06-05T00:59:29.267Z,48.88
2023-06-05T01:00:29.259Z,48.78
2023-06-05T01:01:29.274Z,48.88
2023-06-05T01:02:29.303Z,48.78
2023-06-05T01:03:29.380Z,48.88
2023-06-05T01:04:29.228Z,48.68
2023-06-05T01:05:29.188Z,48.78
2023-06-05T01:06:29.274Z,48.78
2023-06-05T01:07:29.204Z,48.88
2023-06-05T01:08:29.179Z,49.08
2023-06-05T01:09:29.165Z,49.21
2023-06-05T01:10:29.159Z,49.21
2023-06-05T01:11:29.133Z,49.21
2023-06-05T01:12:29.146Z,49.31
2023-06-05T01:13:29.139Z,49.29
2023-06-05T01:14:29.256Z,49.31
2023-06-05T01:15:29.086Z,49.21
2023-06-05T01:16:29.096Z,49.21
2023-06-05T01:17:29.103Z,49.21
2023-06-05T01:18:29.075Z,49.01
2023-06-05T01:19:29.089Z,49.11
2023-06-05T01:20:29.054Z,49.21
2023-06-05T01:21:29.030Z,49.01
2023-06-05T01:22:29.267Z,49.21
2023-06-05T01:23:29.010Z,49.21
2023-06-05T01:24:29.476Z,48.91
2023-06-05T01:25:28.998Z,49.01
2023-06-05T01:26:28.993Z,48.91
2023-06-05T01:27:28.968Z,49.11
2023-06-05T01:28:29.019Z,49.01
2023-06-05T01:29:28.940Z,48.91
2023-06-05T01:30:28.941Z,48.80
2023-06-05T01:31:28.996Z,48.80
2023-06-05T01:32:28.943Z,48.80
2023-06-05T01:33:28.920Z,48.91
2023-06-05T01:34:28.934Z,48.91
2023-06-05T01:35:29.177Z,48.71
2023-06-05T01:36:28.921Z,48.71
2023-06-05T01:37:28.896Z,48.71
2023-06-05T01:38:28.893Z,48.71
2023-06-05T01:39:28.848Z,48.63
2023-06-05T01:40:28.839Z,48.60
2023-06-05T01:41:28.832Z,48.63
2023-06-05T01:42:28.841Z,48.42
2023-06-05T01:43:28.818Z,48.42
2023-06-05T01:44:28.796Z,48.40
2023-06-05T01:45:28.786Z,48.19
2023-06-05T01:46:28.798Z,48.19
2023-06-05T01:47:28.781Z,48.30
2023-06-05T01:48:28.758Z,48.19
2023-06-05T01:49:28.754Z,47.99
2023-06-05T01:50:28.742Z,47.99
2023-06-05T01:51:28.751Z,47.89
2023-06-05T01:52:28.713Z,47.99
2023-06-05T01:53:28.731Z,47.79
2023-06-05T01:54:28.743Z,47.89
2023-06-05T01:55:28.735Z,47.79
2023-06-05T01:56:28.719Z,47.89
2023-06-05T01:57:28.699Z,47.69
2023-06-05T01:58:28.669Z,47.79
2023-06-05T01:59:28.639Z,47.59
2023-06-05T02:00:28.641Z,47.49
2023-06-05T02:01:28.678Z,47.59
2023-06-05T02:02:28.674Z,47.61
2023-06-05T02:03:28.722Z,47.69
2023-06-05T02:04:28.587Z,47.61
2023-06-05T02:05:28.573Z,47.61
2023-06-05T02:06:28.591Z,47.61
2023-06-05T02:07:28.556Z,47.61
2023-06-05T02:08:28.576Z,47.71
2023-06-05T02:09:28.802Z,47.41
2023-06-05T02:10:28.531Z,47.30
2023-06-05T02:11:28.532Z,47.30
2023-06-05T02:12:28.513Z,47.41
2023-06-05T02:13:28.537Z,47.41
2023-06-05T02:14:28.501Z,47.41
2023-06-05T02:15:28.528Z,47.41
2023-06-05T02:16:28.524Z,47.30
2023-06-05T02:17:28.500Z,47.20
2023-06-05T02:18:28.526Z,47.10
2023-06-05T02:19:28.435Z,47.10
2023-06-05T02:20:28.530Z,47.00
2023-06-05T02:21:28.391Z,47.20
2023-06-05T02:22:28.462Z,47.20
2023-06-05T02:23:28.447Z,47.20
2023-06-05T02:24:28.399Z,47.20
2023-06-05T02:25:28.380Z,47.10
2023-06-05T02:26:28.389Z,47.10
2023-06-05T02:27:28.385Z,47.20
2023-06-05T02:28:28.392Z,47.10
2023-06-05T02:29:28.348Z,47.10
2023-06-05T02:30:28.350Z,47.10
2023-06-05T02:31:28.367Z,47.20
2023-06-05T02:32:28.388Z,47.10
2023-06-05T02:33:28.272Z,47.10
2023-06-05T02:34:28.288Z,47.20
2023-06-05T02:35:28.281Z,47.30
2023-06-05T02:36:28.272Z,47.30
2023-06-05T02:37:28.276Z,47.41
2023-06-05T02:38:28.248Z,47.41
2023-06-05T02:39:28.204Z,47.41
2023-06-05T02:40:28.208Z,47.51
2023-06-05T02:41:28.232Z,47.41
2023-06-05T02:42:28.201Z,47.41
2023-06-05T02:43:28.187Z,47.51
2023-06-05T02:44:28.199Z,47.61
2023-06-05T02:45:28.205Z,47.61
2023-06-05T02:46:28.177Z,47.71
2023-06-05T02:47:28.208Z,47.61
2023-06-05T02:48:28.123Z,47.94
2023-06-05T02:49:28.124Z,47.61
2023-06-05T02:50:28.143Z,47.61
2023-06-05T02:51:28.101Z,47.94
2023-06-05T02:52:28.127Z,47.83
2023-06-05T02:53:28.071Z,48.14
2023-06-05T02:54:28.088Z,48.24
2023-06-05T02:55:28.077Z,48.24
2023-06-05T02:56:28.087Z,48.24
2023-06-05T02:57:28.082Z,48.44
2023-06-05T02:58:28.203Z,48.34
2023-06-05T02:59:28.009Z,48.34
2023-06-05T03:00:28.017Z,48.55
2023-06-05T03:01:28.042Z,48.55
2023-06-05T03:02:28.099Z,48.65
2023-06-05T03:03:28.068Z,48.75
2023-06-05T03:04:27.991Z,48.85
2023-06-05T03:05:27.968Z,49.05
2023-06-05T03:06:27.987Z,49.16
2023-06-05T03:07:27.966Z,49.16
2023-06-05T03:08:28.048Z,49.08
2023-06-05T03:09:27.937Z,49.18
2023-06-05T03:10:28.163Z,49.18
2023-06-05T03:11:27.972Z,49.38
2023-06-05T03:12:27.895Z,49.58
2023-06-05T03:13:27.895Z,49.69
2023-06-05T03:14:27.867Z,49.58
2023-06-05T03:15:27.840Z,49.48
2023-06-05T03:16:27.906Z,49.69
2023-06-05T03:17:27.837Z,49.48
2023-06-05T03:18:27.838Z,49.69
2023-06-05T03:19:27.820Z,49.89
2023-06-05T03:20:27.844Z,49.79
2023-06-05T03:21:27.885Z,50.01
2023-06-05T03:22:27.790Z,50.01
2023-06-05T03:23:27.805Z,50.22
2023-06-05T03:24:28.020Z,50.22
2023-06-05T03:25:27.794Z,50.12
2023-06-05T03:26:27.725Z,50.12
2023-06-05T03:27:27.761Z,50.22
2023-06-05T03:28:27.715Z,50.42
2023-06-05T03:29:27.723Z,50.42
2023-06-05T03:30:27.696Z,50.52
2023-06-05T03:31:27.691Z,50.52
2023-06-05T03:32:27.715Z,50.52
2023-06-05T03:33:27.676Z,50.52
2023-06-05T03:34:27.681Z,50.62
2023-06-05T03:35:27.733Z,50.62
2023-06-05T03:36:27.626Z,51.03
2023-06-05T03:37:27.630Z,50.93
2023-06-05T03:38:27.620Z,51.03
2023-06-05T03:39:27.594Z,51.03
2023-06-05T03:40:27.657Z,50.93
2023-06-05T03:41:27.579Z,50.93
2023-06-05T03:42:27.603Z,51.34
2023-06-05T03:43:27.589Z,51.03
2023-06-05T03:44:27.551Z,50.83
2023-06-05T03:45:27.554Z,50.83
2023-06-05T03:46:27.568Z,50.73
2023-06-05T03:47:27.545Z,51.23
2023-06-05T03:48:27.502Z,51.54
2023-06-05T03:49:28.235Z,51.34
2023-06-05T03:50:27.505Z,51.34
2023-06-05T03:51:27.505Z,51.54
2023-06-05T03:52:27.461Z,51.46
2023-06-05T03:53:27.501Z,51.67
2023-06-05T03:54:27.453Z,51.46
2023-06-05T03:55:27.424Z,51.46
2023-06-05T03:56:27.486Z,51.36
2023-06-05T03:57:27.642Z,51.56
2023-06-05T03:58:27.438Z,51.44
2023-06-05T03:59:27.379Z,51.36
2023-06-05T04:00:27.390Z,51.44
2023-06-05T04:01:27.423Z,51.44
2023-06-05T04:02:27.561Z,51.23
2023-06-05T04:03:27.481Z,51.23
2023-06-05T04:04:27.343Z,51.03
2023-06-05T04:05:27.323Z,51.03
2023-06-05T04:06:27.311Z,51.34
2023-06-05T04:07:27.305Z,51.44
2023-06-05T04:08:27.307Z,51.44
2023-06-05T04:09:27.324Z,51.34
2023-06-05T04:10:27.300Z,51.23
2023-06-05T04:11:27.293Z,51.44
2023-06-05T04:12:27.317Z,51.34
2023-06-05T04:13:27.244Z,51.44
2023-06-05T04:14:27.262Z,51.44
2023-06-05T04:15:27.235Z,51.23
2023-06-05T04:16:27.301Z,51.23
2023-06-05T04:17:27.225Z,51.44
2023-06-05T04:18:27.408Z,51.44
2023-06-05T04:19:27.186Z,51.54
2023-06-05T04:20:27.209Z,51.44
2023-06-05T04:21:28.442Z,51.64
2023-06-05T04:22:27.179Z,51.54
2023-06-05T04:23:27.185Z,51.54
2023-06-05T04:24:27.129Z,51.54
2023-06-05T04:25:27.129Z,51.34
2023-06-05T04:26:27.245Z,51.21
2023-06-05T04:27:27.108Z,51.21
2023-06-05T04:28:27.099Z,51.51
2023-06-05T04:29:27.073Z,51.42
2023-06-05T04:30:27.131Z,51.42
2023-06-05T04:31:27.171Z,51.51
2023-06-05T04:32:27.201Z,51.62
2023-06-05T04:33:27.053Z,51.62
2023-06-05T04:34:27.062Z,51.51
2023-06-05T04:35:27.023Z,51.62
2023-06-05T04:36:27.051Z,51.72
2023-06-05T04:37:27.018Z,51.62
2023-06-05T04:38:27.027Z,51.82
2023-06-05T04:39:27.002Z,51.62
2023-06-05T04:40:27.040Z,51.39
2023-06-05T04:41:26.959Z,51.51
2023-06-05T04:42:26.950Z,51.39
2023-06-05T04:43:26.957Z,51.59
2023-06-05T04:44:26.976Z,51.49
2023-06-05T04:45:26.917Z,51.29
2023-06-05T04:46:27.130Z,51.59
2023-06-05T04:47:26.919Z,51.49
2023-06-05T04:48:27.742Z,51.39
2023-06-05T04:49:26.914Z,51.59
2023-06-05T04:50:26.872Z,51.49
2023-06-05T04:51:26.861Z,51.79
2023-06-05T04:52:26.900Z,51.70
2023-06-05T04:53:26.825Z,51.49
2023-06-05T04:54:26.892Z,51.39
2023-06-05T04:55:26.825Z,51.57
2023-06-05T04:56:26.839Z,51.67
2023-06-05T04:57:26.804Z,51.67
2023-06-05T04:58:26.790Z,51.70
2023-06-05T04:59:26.859Z,51.67
2023-06-05T05:00:26.837Z,51.46
2023-06-05T05:01:26.804Z,51.57
2023-06-05T05:02:26.866Z,51.67
2023-06-05T05:03:26.742Z,51.46
2023-06-05T05:04:26.874Z,51.57
2023-06-05T05:05:26.711Z,51.46
2023-06-05T05:06:26.717Z,51.37
2023-06-05T05:07:26.758Z,51.24
2023-06-05T05:08:26.714Z,51.34
2023-06-05T05:09:26.983Z,51.04
2023-06-05T05:10:26.707Z,50.93
2023-06-05T05:11:26.715Z,50.84
2023-06-05T05:12:26.657Z,50.93
2023-06-05T05:13:26.691Z,51.04
2023-06-05T05:14:27.290Z,51.14
2023-06-05T05:15:26.621Z,51.01
2023-06-05T05:16:26.670Z,51.21
2023-06-05T05:17:26.647Z,51.01
2023-06-05T05:18:26.597Z,50.81
2023-06-05T05:19:26.576Z,50.81
2023-06-05T05:20:26.584Z,50.71
2023-06-05T05:21:26.544Z,50.91
2023-06-05T05:22:26.545Z,50.71
2023-06-05T05:23:26.621Z,50.71
2023-06-05T05:24:26.508Z,51.01
2023-06-05T05:25:26.538Z,50.81
2023-06-05T05:26:26.521Z,50.81
2023-06-05T05:27:26.540Z,50.60
2023-06-05T05:28:26.483Z,50.48
2023-06-05T05:29:26.492Z,50.28
2023-06-05T05:30:26.444Z,50.18
2023-06-05T05:31:26.481Z,50.08
2023-06-05T05:32:26.513Z,50.48
2023-06-05T05:33:26.438Z,50.38
2023-06-05T05:34:26.452Z,50.38
2023-06-05T05:35:26.428Z,50.26
2023-06-05T05:36:26.453Z,50.15
2023-06-05T05:37:26.394Z,49.95
2023-06-05T05:38:26.402Z,50.15
2023-06-05T05:39:26.375Z,49.83
2023-06-05T05:40:26.360Z,49.42
2023-06-05T05:41:26.339Z,49.42
2023-06-05T05:42:26.353Z,49.19
2023-06-05T05:43:26.333Z,49.32
2023-06-05T05:44:26.363Z,49.11
2023-06-05T05:45:26.349Z,49.11
2023-06-05T05:46:27.755Z,49.11
2023-06-05T05:47:26.337Z,48.91
2023-06-05T05:48:26.306Z,48.91
2023-06-05T05:49:26.265Z,48.79
2023-06-05T05:50:26.243Z,48.99
2023-06-05T05:51:26.279Z,48.79
2023-06-05T05:52:26.236Z,48.69
2023-06-05T05:53:26.221Z,48.99
2023-06-05T05:54:26.212Z,48.90
2023-06-05T05:55:26.199Z,48.79
2023-06-05T05:56:26.181Z,48.79
2023-06-05T05:57:26.190Z,49.10
2023-06-05T05:58:26.257Z,48.99
2023-06-05T05:59:26.158Z,48.79
2023-06-05T06:00:26.196Z,48.87
2023-06-05T06:01:26.142Z,48.67
2023-06-05T06:02:26.197Z,48.34
2023-06-05T06:03:26.169Z,48.34
2023-06-05T06:04:26.119Z,48.24
2023-06-05T06:05:26.125Z,48.32
2023-06-05T06:06:26.109Z,48.02
2023-06-05T06:07:26.118Z,47.61
2023-06-05T06:08:26.127Z,47.89
2023-06-05T06:09:26.098Z,47.19
2023-06-05T06:10:26.038Z,47.49
2023-06-05T06:11:26.037Z,47.26
2023-06-05T06:12:26.028Z,46.96
2023-06-05T06:13:26.013Z,46.96
2023-06-05T06:14:26.092Z,47.26
2023-06-05T06:15:26.012Z,46.66
2023-06-05T06:16:26.048Z,46.56
2023-06-05T06:17:25.993Z,46.03
2023-06-05T06:18:26.780Z,45.83
2023-06-05T06:19:25.987Z,45.62
2023-06-05T06:20:25.957Z,45.83
2023-06-05T06:21:25.911Z,45.70
2023-06-05T06:22:25.917Z,45.70
2023-06-05T06:23:25.950Z,45.61
2023-06-05T06:24:25.943Z,45.50
2023-06-05T06:25:25.905Z,45.50
2023-06-05T06:26:25.871Z,45.78
2023-06-05T06:28:25.895Z,45.28
2023-06-05T06:29:25.852Z,44.98
2023-06-05T06:30:25.910Z,45.07
2023-06-05T06:31:25.874Z,45.06
2023-06-05T06:32:25.827Z,44.85
2023-06-05T06:33:25.854Z,44.65
2023-06-05T06:34:25.809Z,44.55
2023-06-05T06:35:25.942Z,44.85
2023-06-05T06:36:25.789Z,44.65
2023-06-05T06:37:25.785Z,44.75
2023-06-05T06:38:25.789Z,44.95
2023-06-05T06:39:25.816Z,44.63
2023-06-05T06:40:25.755Z,44.23
2023-06-05T06:41:25.757Z,43.85
2023-06-05T06:42:25.749Z,44.13
2023-06-05T06:43:25.710Z,44.35
2023-06-05T06:44:25.712Z,44.45
2023-06-05T06:45:25.688Z,44.23
2023-06-05T06:46:25.705Z,44.23
2023-06-05T06:47:25.823Z,44.61
2023-06-05T06:48:26.404Z,44.01
2023-06-05T06:49:25.788Z,44.11
2023-06-05T06:50:25.796Z,44.09
2023-06-05T06:51:25.873Z,43.51
2023-06-05T06:52:26.362Z,43.80
2023-06-05T06:53:25.707Z,43.91
2023-06-05T06:54:25.599Z,43.71
2023-06-05T06:55:25.630Z,43.71
2023-06-05T06:56:25.568Z,43.51
2023-06-05T06:57:25.555Z,43.51
2023-06-05T06:58:28.354Z,43.60
2023-06-05T06:59:25.548Z,43.82
2023-06-05T07:00:25.594Z,43.82
2023-06-05T07:01:25.562Z,44.02
2023-06-05T07:02:25.621Z,43.91
2023-06-05T07:03:25.629Z,44.11
2023-06-05T07:04:25.524Z,43.79
2023-06-05T07:05:25.530Z,43.26
2023-06-05T07:06:25.472Z,42.96
2023-06-05T07:07:26.281Z,42.55
2023-06-05T07:08:25.502Z,42.66
2023-06-05T07:09:25.469Z,42.54
2023-06-05T07:10:25.465Z,43.14
2023-06-05T07:11:25.486Z,43.44
2023-06-05T07:12:25.446Z,42.61
2023-06-05T07:13:25.495Z,42.11
2023-06-05T07:14:25.413Z,42.92
2023-06-05T07:15:25.385Z,42.80
2023-06-05T07:16:26.400Z,42.10
2023-06-05T07:17:25.391Z,42.10
2023-06-05T07:18:25.627Z,42.18
2023-06-05T07:19:25.459Z,41.97
2023-06-05T07:20:25.406Z,41.77
2023-06-05T07:21:25.355Z,41.65
2023-06-05T07:22:25.327Z,41.27
2023-06-05T07:23:25.365Z,41.27
2023-06-05T07:24:25.293Z,40.97
2023-06-05T07:25:25.319Z,41.29
2023-06-05T07:26:25.528Z,40.97
2023-06-05T07:27:25.302Z,40.35
2023-06-05T07:28:25.282Z,40.47
2023-06-05T07:29:25.241Z,40.35
2023-06-05T07:30:25.318Z,40.65
2023-06-05T07:31:25.287Z,41.25
2023-06-05T07:32:25.306Z,41.35
2023-06-05T07:33:30.770Z,41.13
2023-06-05T07:34:25.418Z,41.03
2023-06-05T07:35:25.224Z,41.03
2023-06-05T07:36:25.238Z,40.33
2023-06-05T07:37:25.174Z,40.13
2023-06-05T07:38:25.141Z,39.71
2023-06-05T07:39:25.163Z,39.71
2023-06-05T07:40:25.119Z,39.69
2023-06-05T07:41:25.140Z,39.89
2023-06-05T07:42:25.222Z,39.69
2023-06-05T07:43:25.137Z,39.89
2023-06-05T07:44:25.099Z,39.79
2023-06-05T07:45:25.164Z,39.69
2023-06-05T07:46:25.128Z,39.31
2023-06-05T07:47:25.096Z,38.90
2023-06-05T07:48:25.033Z,39.11
2023-06-05T07:49:25.085Z,39.09
2023-06-05T07:50:25.038Z,39.29
2023-06-05T07:51:25.014Z,39.37
2023-06-05T07:52:25.228Z,39.05
2023-06-05T07:53:25.167Z,38.85
2023-06-05T07:54:25.005Z,38.45
2023-06-05T07:55:25.012Z,38.45
2023-06-05T07:56:24.957Z,38.15
2023-06-05T07:57:25.041Z,38.03
2023-06-05T07:58:24.960Z,37.83
2023-06-05T07:59:24.979Z,38.03
2023-06-05T08:00:24.961Z,38.43
2023-06-05T08:01:24.956Z,37.83
2023-06-05T08:02:25.242Z,37.71
2023-06-05T08:03:25.086Z,37.21
2023-06-05T08:04:25.002Z,37.51
2023-06-05T08:05:24.891Z,37.41
2023-06-05T08:06:24.839Z,37.51
2023-06-05T08:07:24.885Z,37.81
2023-06-05T08:08:24.926Z,38.11
2023-06-05T08:09:24.830Z,37.92
2023-06-05T08:10:25.044Z,37.81
2023-06-05T08:11:24.943Z,37.59
2023-06-05T08:12:24.793Z,37.19
2023-06-05T08:13:24.809Z,37.49
2023-06-05T08:14:24.776Z,37.59
2023-06-05T08:15:24.801Z,37.40
2023-06-05T08:16:24.872Z,37.40
2023-06-05T08:17:24.869Z,37.59
2023-06-05T08:18:24.799Z,37.49
2023-06-05T08:19:24.764Z,37.38
2023-06-05T08:20:24.756Z,37.38
2023-06-05T08:21:24.705Z,37.48
2023-06-05T08:22:24.715Z,37.77
2023-06-05T08:23:24.670Z,37.27
2023-06-05T08:24:24.654Z,37.86
2023-06-05T08:25:24.725Z,37.56
2023-06-05T08:26:24.875Z,37.56
2023-06-05T08:27:24.676Z,37.04
2023-06-05T08:28:25.329Z,37.04
2023-06-05T08:29:24.678Z,37.04
2023-06-05T08:30:24.795Z,37.04
2023-06-05T08:31:24.641Z,37.14
2023-06-05T08:32:24.606Z,36.94
2023-06-05T08:33:24.572Z,37.14
2023-06-05T08:34:24.601Z,37.04
2023-06-05T08:35:24.625Z,37.14
2023-06-05T08:36:24.549Z,37.54
2023-06-05T08:37:24.602Z,37.54
2023-06-05T08:38:24.524Z,37.62
2023-06-05T08:39:24.675Z,37.32
2023-06-05T08:40:24.507Z,37.42
2023-06-05T08:41:24.526Z,37.24
2023-06-05T08:42:24.478Z,37.92
2023-06-05T08:43:24.600Z,38.22
2023-06-05T08:44:24.503Z,37.82
2023-06-05T08:45:24.478Z,37.82
2023-06-05T08:46:24.749Z,38.12
2023-06-05T08:47:24.501Z,38.31
2023-06-05T08:48:24.502Z,38.10
2023-06-05T08:49:24.398Z,37.70
2023-06-05T08:50:24.390Z,37.60
2023-06-05T08:51:24.399Z,38.59
2023-06-05T08:52:24.384Z,37.49
2023-06-05T08:53:24.395Z,37.67
2023-06-05T08:54:24.851Z,37.37
2023-06-05T08:55:24.364Z,37.87
2023-06-05T08:56:24.319Z,37.27
2023-06-05T08:57:24.363Z,36.97
2023-06-05T08:58:24.338Z,36.97
2023-06-05T08:59:24.355Z,36.97
2023-06-05T09:00:24.284Z,37.17
2023-06-05T09:01:24.345Z,37.57
2023-06-05T09:02:24.313Z,37.47
2023-06-05T09:03:24.281Z,37.67
2023-06-05T09:04:25.897Z,37.77
2023-06-05T09:05:24.257Z,37.25
2023-06-05T09:06:24.273Z,37.15
2023-06-05T09:07:24.249Z,37.15
2023-06-05T09:08:24.415Z,36.95
2023-06-05T09:09:24.202Z,37.75
2023-06-05T09:10:24.271Z,37.73
2023-06-05T09:11:25.354Z,36.74
2023-06-05T09:12:24.280Z,36.72
2023-06-05T09:13:24.160Z,36.42
2023-06-05T09:14:24.140Z,37.32
2023-06-05T09:15:24.781Z,36.72
2023-06-05T09:16:24.389Z,36.80
2023-06-05T09:17:24.166Z,36.80
2023-06-05T09:18:24.397Z,36.62
2023-06-05T09:19:24.155Z,36.93
2023-06-05T09:20:24.120Z,37.43
2023-06-05T09:21:24.087Z,37.34
2023-06-05T09:22:24.093Z,37.62
2023-06-05T09:23:25.848Z,36.92
2023-06-05T09:24:24.368Z,37.32
2023-06-05T09:25:24.096Z,37.62
2023-06-05T09:26:24.060Z,37.49
2023-06-05T09:27:24.034Z,37.60
2023-06-05T09:28:24.035Z,36.58
2023-06-05T09:29:24.022Z,36.78
2023-06-05T09:30:24.000Z,36.88
2023-06-05T09:31:25.000Z,36.58
2023-06-05T09:32:24.020Z,36.68
2023-06-05T09:33:23.961Z,36.29
2023-06-05T09:34:23.963Z,35.97
2023-06-05T09:35:23.935Z,35.66
2023-06-05T09:36:23.950Z,35.67
2023-06-05T09:37:23.948Z,35.39
2023-06-05T09:38:23.911Z,35.39
2023-06-05T09:39:23.899Z,35.38
2023-06-05T09:40:23.885Z,35.08
2023-06-05T09:41:25.892Z,35.08
2023-06-05T09:42:23.889Z,35.47
2023-06-05T09:43:23.862Z,35.38
2023-06-05T09:44:23.981Z,35.08
2023-06-05T09:45:23.889Z,34.78
2023-06-05T09:46:23.925Z,34.68
2023-06-05T09:47:23.883Z,34.98
2023-06-05T09:48:23.868Z,35.38
2023-06-05T09:49:23.835Z,35.16
2023-06-05T09:50:24.021Z,34.86
2023-06-05T09:51:23.808Z,34.66
2023-06-05T09:52:23.804Z,33.55
2023-06-05T09:53:23.787Z,33.36
2023-06-05T09:54:23.824Z,33.55
2023-06-05T09:55:23.760Z,33.36
2023-06-05T09:56:23.774Z,32.64
2023-06-05T09:57:23.774Z,33.14
2023-06-05T09:58:23.752Z,33.25
2023-06-05T09:59:23.701Z,33.64
2023-06-05T10:00:23.773Z,33.73
2023-06-05T10:01:24.015Z,33.83
2023-06-05T10:02:23.737Z,33.82
2023-06-05T10:03:23.639Z,32.82
2023-06-05T10:04:23.683Z,32.23
2023-06-05T10:05:24.154Z,33.40
2023-06-05T10:06:23.707Z,32.82
2023-06-05T10:07:23.649Z,32.53
2023-06-05T10:08:23.688Z,32.93
2023-06-05T10:09:23.629Z,32.71
2023-06-05T10:10:23.589Z,31.72
2023-06-05T10:11:23.571Z,31.72
2023-06-05T10:12:23.581Z,31.71
2023-06-05T10:13:23.820Z,31.01
2023-06-05T10:14:23.561Z,30.83
2023-06-05T10:15:23.556Z,31.32
2023-06-05T10:16:26.967Z,31.02
2023-06-05T10:17:23.586Z,30.13
2023-06-05T10:18:23.914Z,29.94
2023-06-05T10:19:23.596Z,30.35
2023-06-05T10:20:23.493Z,30.83
2023-06-05T10:21:23.544Z,30.83
2023-06-05T10:22:23.577Z,30.53
2023-06-05T10:23:23.481Z,30.62
2023-06-05T10:24:23.438Z,30.12
2023-06-05T10:25:23.521Z,30.80
2023-06-05T10:26:23.442Z,30.21
2023-06-05T10:27:23.496Z,30.50
2023-06-05T10:28:23.494Z,29.71
2023-06-05T10:29:23.441Z,30.12
2023-06-05T10:30:24.010Z,30.21
2023-06-05T10:31:23.452Z,30.40
2023-06-05T10:32:23.439Z,29.72
2023-06-05T10:33:23.356Z,30.10
2023-06-05T10:34:23.404Z,29.51
2023-06-05T10:35:23.401Z,30.09
2023-06-05T10:36:23.381Z,29.81
2023-06-05T10:37:23.978Z,29.41
2023-06-05T10:38:23.390Z,29.61
2023-06-05T10:39:23.458Z,29.30
2023-06-05T10:40:23.352Z,27.72
2023-06-05T10:41:23.261Z,28.39
2023-06-05T10:42:23.270Z,28.21
2023-06-05T10:43:23.247Z,28.31
2023-06-05T10:44:23.271Z,28.12
2023-06-05T10:45:23.279Z,28.51
2023-06-05T10:46:23.307Z,28.61
2023-06-05T10:47:23.350Z,28.49
2023-06-05T10:48:23.206Z,28.88
2023-06-05T10:49:23.209Z,29.09
2023-06-05T10:50:23.269Z,30.18
2023-06-05T10:51:23.233Z,29.88
2023-06-05T10:52:23.210Z,29.37
2023-06-05T10:53:23.136Z,29.07
2023-06-05T10:54:23.234Z,29.36
2023-06-05T10:55:23.171Z,28.86
2023-06-05T10:56:23.214Z,30.05
2023-06-05T10:57:23.120Z,29.34
2023-06-05T10:58:23.133Z,28.44
2023-06-05T10:59:23.196Z,28.24
2023-06-05T11:00:23.252Z,27.75
2023-06-05T11:01:23.159Z,27.64
2023-06-05T11:02:23.081Z,26.84
2023-06-05T11:03:23.113Z,27.07
2023-06-05T11:04:23.106Z,27.49
2023-06-05T11:05:23.106Z,28.48
2023-06-05T11:06:23.074Z,28.88
2023-06-05T11:07:23.087Z,28.47
2023-06-05T11:08:23.131Z,29.14
2023-06-05T11:09:23.013Z,27.94
2023-06-05T11:10:23.018Z,26.07
2023-06-05T11:11:23.001Z,25.28
2023-06-05T11:12:23.119Z,25.48
2023-06-05T11:13:22.958Z,25.48
2023-06-05T11:14:22.996Z,25.78
2023-06-05T11:15:23.104Z,26.08
2023-06-05T11:16:23.117Z,26.19
2023-06-05T11:17:22.936Z,26.80
2023-06-05T11:18:22.893Z,27.39
2023-06-05T11:19:22.960Z,28.78
2023-06-05T11:20:22.997Z,27.89
2023-06-05T11:21:22.905Z,27.80
2023-06-05T11:22:22.879Z,28.01
2023-06-05T11:23:22.930Z,28.32
2023-06-05T11:24:23.090Z,28.52
2023-06-05T11:25:22.862Z,28.41
2023-06-05T11:26:23.464Z,28.59
2023-06-05T11:27:22.863Z,27.69
2023-06-05T11:28:22.904Z,27.87
2023-06-05T11:29:22.768Z,27.87
2023-06-05T11:30:39.221Z,27.96
2023-06-05T11:31:22.940Z,27.17
2023-06-05T11:32:23.054Z,27.75
2023-06-05T11:33:23.158Z,26.77
2023-06-05T11:34:23.426Z,27.00
2023-06-05T11:35:22.755Z,27.90
2023-06-05T11:36:22.763Z,27.69
2023-06-05T11:37:22.718Z,27.60
2023-06-05T11:38:24.008Z,27.70
2023-06-05T11:39:22.730Z,27.90
2023-06-05T11:40:22.732Z,28.20
2023-06-05T11:41:22.712Z,27.49
2023-06-05T11:42:22.681Z,27.62
2023-06-05T11:43:22.876Z,28.21
2023-06-05T11:44:22.685Z,28.08
2023-06-05T11:45:22.640Z,27.28
2023-06-05T11:46:22.685Z,27.47
2023-06-05T11:47:22.654Z,26.86
2023-06-05T11:48:22.649Z,26.45
2023-06-05T11:49:22.624Z,26.15
2023-06-05T11:50:22.598Z,26.04
2023-06-05T11:51:22.568Z,26.03
2023-06-05T11:52:22.584Z,25.84
2023-06-05T11:53:22.598Z,26.25
2023-06-05T11:54:22.556Z,26.14
2023-06-05T11:55:22.787Z,25.63
2023-06-05T11:56:22.519Z,25.13
2023-06-05T11:57:22.582Z,24.82
2023-06-05T11:58:22.510Z,23.76
2023-06-05T11:59:22.505Z,23.97
2023-06-05T12:00:22.539Z,24.45
2023-06-05T12:01:23.296Z,24.17
2023-06-05T12:02:22.503Z,25.15
2023-06-05T12:03:22.593Z,23.96
2023-06-05T12:04:22.547Z,23.37
2023-06-05T12:05:22.462Z,23.46
2023-06-05T12:06:22.540Z,23.55
2023-06-05T12:07:22.471Z,23.95
2023-06-05T12:08:22.437Z,24.24
2023-06-05T12:09:22.409Z,23.74
2023-06-05T12:10:22.382Z,22.56
2023-06-05T12:11:22.369Z,22.56
2023-06-05T12:12:22.422Z,23.08
2023-06-05T12:13:22.406Z,23.68
2023-06-05T12:14:22.441Z,23.96
2023-06-05T12:15:22.588Z,23.27
2023-06-05T12:16:22.444Z,23.36
2023-06-05T12:17:22.375Z,23.44
2023-06-05T12:18:22.362Z,23.44
2023-06-05T12:19:22.306Z,22.56
2023-06-05T12:20:22.397Z,22.35
2023-06-05T12:21:22.290Z,23.14
2023-06-05T12:22:22.397Z,22.63
2023-06-05T12:23:22.307Z,22.94
2023-06-05T12:24:22.236Z,22.74
2023-06-05T12:25:22.410Z,23.06
2023-06-05T12:26:22.238Z,24.09
2023-06-05T12:27:22.234Z,24.09
2023-06-05T12:28:22.204Z,24.07
2023-06-05T12:29:22.204Z,23.85
2023-06-05T12:30:22.214Z,23.06
2023-06-05T12:31:22.257Z,23.05
2023-06-05T12:32:23.030Z,23.15
2023-06-05T12:33:22.288Z,23.55
2023-06-05T12:34:22.185Z,23.26
2023-06-05T12:35:22.208Z,23.46
2023-06-05T12:36:22.160Z,23.86
2023-06-05T12:37:22.176Z,24.26
2023-06-05T12:38:22.212Z,24.49
2023-06-05T12:39:22.174Z,25.09
2023-06-05T12:40:34.632Z,24.79
2023-06-05T12:41:22.101Z,25.07
2023-06-05T12:42:22.124Z,24.66
2023-06-05T12:43:22.084Z,24.16
2023-06-05T12:44:22.101Z,24.26
2023-06-05T12:45:22.129Z,24.34
2023-06-05T12:46:22.155Z,24.13
2023-06-05T12:47:22.096Z,23.84
2023-06-05T12:48:22.081Z,23.53
2023-06-05T12:49:22.943Z,23.24
2023-06-05T12:50:22.128Z,23.15
2023-06-05T12:51:22.009Z,24.05
2023-06-05T12:52:22.031Z,24.15
2023-06-05T12:53:22.036Z,24.13